sensor_id;sensor_type;location;lat;lon;timestamp;pressure;altitude;pressure_sealevel;temperature;humidity
37852;BME280;23691;52.486;4.650;2022-07-18T00:01:27;102498.97;;;21.30;53.91
37852;BME280;23691;52.486;4.650;2022-07-18T00:03:53;102493.28;;;21.25;54.32
37852;BME280;23691;52.486;4.650;2022-07-18T00:06:18;102487.19;;;21.22;53.89
37852;BME280;23691;52.486;4.650;2022-07-18T00:08:44;102493.88;;;21.20;54.09
37852;BME280;23691;52.486;4.650;2022-07-18T00:11:09;102495.09;;;21.17;54.60
37852;BME280;23691;52.486;4.650;2022-07-18T00:13:34;102497.34;;;21.14;54.27
37852;BME280;23691;52.486;4.650;2022-07-18T00:16:00;102490.41;;;21.11;54.49
37852;BME280;23691;52.486;4.650;2022-07-18T00:18:25;102486.41;;;21.07;54.72
37852;BME280;23691;52.486;4.650;2022-07-18T00:20:51;102492.69;;;21.08;54.50
37852;BME280;23691;52.486;4.650;2022-07-18T00:23:16;102490.38;;;21.05;54.66
37852;BME280;23691;52.486;4.650;2022-07-18T00:25:41;102486.34;;;21.00;54.63
37852;BME280;23691;52.486;4.650;2022-07-18T00:28:07;102478.75;;;20.96;54.96
37852;BME280;23691;52.486;4.650;2022-07-18T00:30:32;102477.28;;;20.93;54.85
37852;BME280;23691;52.486;4.650;2022-07-18T00:32:58;102475.97;;;20.89;55.11
37852;BME280;23691;52.486;4.650;2022-07-18T00:35:23;102476.75;;;20.83;55.45
37852;BME280;23691;52.486;4.650;2022-07-18T00:37:49;102473.56;;;20.79;55.34
37852;BME280;23691;52.486;4.650;2022-07-18T00:40:14;102468.91;;;20.73;55.86
37852;BME280;23691;52.486;4.650;2022-07-18T00:42:39;102469.47;;;20.69;56.08
37852;BME280;23691;52.486;4.650;2022-07-18T00:45:05;102469.88;;;20.66;56.02
37852;BME280;23691;52.486;4.650;2022-07-18T00:47:30;102467.72;;;20.61;56.51
37852;BME280;23691;52.486;4.650;2022-07-18T00:49:56;102467.06;;;20.59;56.32
37852;BME280;23691;52.486;4.650;2022-07-18T00:52:21;102470.44;;;20.61;56.16
37852;BME280;23691;52.486;4.650;2022-07-18T00:54:47;102468.13;;;20.58;56.40
37852;BME280;23691;52.486;4.650;2022-07-18T00:57:12;102473.91;;;20.55;56.34
37852;BME280;23691;52.486;4.650;2022-07-18T00:59:38;102466.94;;;20.52;56.43
37852;BME280;23691;52.486;4.650;2022-07-18T01:02:23;102469.22;;;20.49;56.36
37852;BME280;23691;52.486;4.650;2022-07-18T01:04:49;102464.53;;;20.43;56.77
37852;BME280;23691;52.486;4.650;2022-07-18T01:07:14;102463.03;;;20.40;56.67
37852;BME280;23691;52.486;4.650;2022-07-18T01:09:40;102470.38;;;20.40;56.66
37852;BME280;23691;52.486;4.650;2022-07-18T01:12:06;102474.69;;;20.34;56.75
37852;BME280;23691;52.486;4.650;2022-07-18T01:14:32;102466.72;;;20.32;56.92
37852;BME280;23691;52.486;4.650;2022-07-18T01:16:58;102467.09;;;20.29;56.77
37852;BME280;23691;52.486;4.650;2022-07-18T01:19:23;102478.16;;;20.28;57.12
37852;BME280;23691;52.486;4.650;2022-07-18T01:21:49;102473.09;;;20.25;57.25
37852;BME280;23691;52.486;4.650;2022-07-18T01:24:14;102464.69;;;20.20;57.17
37852;BME280;23691;52.486;4.650;2022-07-18T01:26:39;102455.41;;;20.14;57.47
37852;BME280;23691;52.486;4.650;2022-07-18T01:29:05;102454.94;;;20.10;57.60
37852;BME280;23691;52.486;4.650;2022-07-18T01:31:30;102450.53;;;20.09;57.42
37852;BME280;23691;52.486;4.650;2022-07-18T01:33:59;102444.63;;;20.06;57.42
37852;BME280;23691;52.486;4.650;2022-07-18T01:36:25;102455.69;;;20.04;57.51
37852;BME280;23691;52.486;4.650;2022-07-18T01:38:50;102451.50;;;20.02;57.69
37852;BME280;23691;52.486;4.650;2022-07-18T01:41:16;102443.53;;;20.00;57.48
37852;BME280;23691;52.486;4.650;2022-07-18T01:43:42;102440.81;;;20.00;57.56
37852;BME280;23691;52.486;4.650;2022-07-18T01:46:09;102434.91;;;19.97;57.58
37852;BME280;23691;52.486;4.650;2022-07-18T01:48:37;102432.38;;;19.95;57.63
37852;BME280;23691;52.486;4.650;2022-07-18T01:51:02;102435.47;;;19.92;57.58
37852;BME280;23691;52.486;4.650;2022-07-18T01:53:28;102433.16;;;19.89;57.50
37852;BME280;23691;52.486;4.650;2022-07-18T01:55:53;102436.31;;;19.92;57.35
37852;BME280;23691;52.486;4.650;2022-07-18T01:58:18;102427.78;;;19.95;57.29
37852;BME280;23691;52.486;4.650;2022-07-18T02:00:44;102430.50;;;19.95;57.27
37852;BME280;23691;52.486;4.650;2022-07-18T02:03:09;102428.00;;;19.94;57.28
37852;BME280;23691;52.486;4.650;2022-07-18T02:05:34;102428.00;;;19.94;57.40
37852;BME280;23691;52.486;4.650;2022-07-18T02:08:00;102427.78;;;19.95;57.11
37852;BME280;23691;52.486;4.650;2022-07-18T02:10:25;102434.91;;;19.97;57.04
37852;BME280;23691;52.486;4.650;2022-07-18T02:12:51;102434.72;;;19.98;56.96
37852;BME280;23691;52.486;4.650;2022-07-18T02:15:16;102435.56;;;19.99;56.76
37852;BME280;23691;52.486;4.650;2022-07-18T02:17:43;102425.34;;;20.01;56.64
37852;BME280;23691;52.486;4.650;2022-07-18T02:20:12;102431.63;;;20.01;56.58
37852;BME280;23691;52.486;4.650;2022-07-18T02:22:38;102423.84;;;19.98;56.49
37852;BME280;23691;52.486;4.650;2022-07-18T02:25:04;102423.00;;;19.98;56.59
37852;BME280;23691;52.486;4.650;2022-07-18T02:27:29;102420.50;;;19.96;56.43
37852;BME280;23691;52.486;4.650;2022-07-18T02:29:55;102418.97;;;19.93;56.40
37852;BME280;23691;52.486;4.650;2022-07-18T02:32:20;102414.41;;;19.94;55.91
37852;BME280;23691;52.486;4.650;2022-07-18T02:34:47;102416.06;;;19.95;56.06
37852;BME280;23691;52.486;4.650;2022-07-18T02:37:12;102421.50;;;19.95;56.01
37852;BME280;23691;52.486;4.650;2022-07-18T02:39:38;102430.69;;;19.94;56.08
37852;BME280;23691;52.486;4.650;2022-07-18T02:42:03;102417.31;;;19.92;55.90
37852;BME280;23691;52.486;4.650;2022-07-18T02:44:29;102416.84;;;19.89;55.55
37852;BME280;23691;52.486;4.650;2022-07-18T02:46:54;102411.59;;;19.87;55.70
37852;BME280;23691;52.486;4.650;2022-07-18T02:49:20;102413.84;;;19.84;55.75
37852;BME280;23691;52.486;4.650;2022-07-18T02:52:06;102403.16;;;19.82;55.67
37852;BME280;23691;52.486;4.650;2022-07-18T02:54:34;102397.25;;;19.79;56.05
37852;BME280;23691;52.486;4.650;2022-07-18T02:57:00;102393.03;;;19.76;55.91
37852;BME280;23691;52.486;4.650;2022-07-18T02:59:26;102395.75;;;19.76;55.77
37852;BME280;23691;52.486;4.650;2022-07-18T03:01:52;102394.91;;;19.76;55.82
37852;BME280;23691;52.486;4.650;2022-07-18T03:04:19;102388.00;;;19.73;55.87
37852;BME280;23691;52.486;4.650;2022-07-18T03:06:46;102381.72;;;19.72;55.97
37852;BME280;23691;52.486;4.650;2022-07-18T03:09:12;102381.25;;;19.69;56.09
37852;BME280;23691;52.486;4.650;2022-07-18T03:11:38;102381.59;;;19.66;55.83
37852;BME280;23691;52.486;4.650;2022-07-18T03:14:04;102381.13;;;19.62;55.88
37852;BME280;23691;52.486;4.650;2022-07-18T03:16:29;102370.28;;;19.62;55.84
37852;BME280;23691;52.486;4.650;2022-07-18T03:18:54;102372.34;;;19.60;55.68
37852;BME280;23691;52.486;4.650;2022-07-18T03:21:20;102371.69;;;19.58;55.71
37852;BME280;23691;52.486;4.650;2022-07-18T03:23:48;102375.59;;;19.56;55.77
37852;BME280;23691;52.486;4.650;2022-07-18T03:26:13;102367.00;;;19.52;55.69
37852;BME280;23691;52.486;4.650;2022-07-18T03:28:39;102354.44;;;19.51;55.87
37852;BME280;23691;52.486;4.650;2022-07-18T03:31:05;102354.28;;;19.52;55.64
37852;BME280;23691;52.486;4.650;2022-07-18T03:33:30;102352.22;;;19.55;55.43
37852;BME280;23691;52.486;4.650;2022-07-18T03:35:56;102352.00;;;19.56;55.20
37852;BME280;23691;52.486;4.650;2022-07-18T03:38:21;102343.03;;;19.56;54.79
37852;BME280;23691;52.486;4.650;2022-07-18T03:40:46;102346.41;;;19.58;54.65
37852;BME280;23691;52.486;4.650;2022-07-18T03:43:12;102338.44;;;19.56;54.55
37852;BME280;23691;52.486;4.650;2022-07-18T03:45:37;102335.56;;;19.58;54.34
37852;BME280;23691;52.486;4.650;2022-07-18T03:48:03;102342.84;;;19.57;54.12
37852;BME280;23691;52.486;4.650;2022-07-18T03:50:28;102343.22;;;19.54;54.08
37852;BME280;23691;52.486;4.650;2022-07-18T03:52:54;102334.88;;;19.56;54.00
37852;BME280;23691;52.486;4.650;2022-07-18T03:55:20;102336.59;;;19.57;53.79
37852;BME280;23691;52.486;4.650;2022-07-18T03:57:45;102340.97;;;19.58;53.83
37852;BME280;23691;52.486;4.650;2022-07-18T04:00:12;102338.94;;;19.60;54.01
37852;BME280;23691;52.486;4.650;2022-07-18T04:02:41;102340.59;;;19.61;53.80
37852;BME280;23691;52.486;4.650;2022-07-18T04:05:07;102345.84;;;19.62;53.64
37852;BME280;23691;52.486;4.650;2022-07-18T04:07:33;102341.25;;;19.63;53.67
37852;BME280;23691;52.486;4.650;2022-07-18T04:09:59;102344.81;;;19.63;53.40
37852;BME280;23691;52.486;4.650;2022-07-18T04:12:24;102339.59;;;19.62;53.43
37852;BME280;23691;52.486;4.650;2022-07-18T04:14:49;102348.56;;;19.62;53.23
37852;BME280;23691;52.486;4.650;2022-07-18T04:17:15;102352.13;;;19.63;53.24
37852;BME280;23691;52.486;4.650;2022-07-18T04:19:40;102354.84;;;19.63;53.16
37852;BME280;23691;52.486;4.650;2022-07-18T04:22:06;102355.88;;;19.62;53.42
37852;BME280;23691;52.486;4.650;2022-07-18T04:24:31;102364.03;;;19.62;53.35
37852;BME280;23691;52.486;4.650;2022-07-18T04:26:57;102359.81;;;19.59;53.41
37852;BME280;23691;52.486;4.650;2022-07-18T04:29:22;102366.63;;;19.55;53.51
37852;BME280;23691;52.486;4.650;2022-07-18T04:31:47;102358.88;;;19.52;53.65
37852;BME280;23691;52.486;4.650;2022-07-18T04:34:13;102360.91;;;19.50;54.21
37852;BME280;23691;52.486;4.650;2022-07-18T04:36:38;102367.38;;;19.49;53.78
37852;BME280;23691;52.486;4.650;2022-07-18T04:39:03;102366.53;;;19.48;53.80
37852;BME280;23691;52.486;4.650;2022-07-18T04:41:29;102362.97;;;19.48;53.79
37852;BME280;23691;52.486;4.650;2022-07-18T04:43:55;102365.22;;;19.44;53.98
37852;BME280;23691;52.486;4.650;2022-07-18T04:46:20;102365.59;;;19.41;54.07
37852;BME280;23691;52.486;4.650;2022-07-18T04:48:46;102363.91;;;19.40;54.23
37852;BME280;23691;52.486;4.650;2022-07-18T04:51:11;102359.50;;;19.39;54.26
37852;BME280;23691;52.486;4.650;2022-07-18T04:53:36;102363.72;;;19.42;54.35
37852;BME280;23691;52.486;4.650;2022-07-18T04:56:02;102368.28;;;19.41;54.16
37852;BME280;23691;52.486;4.650;2022-07-18T04:58:28;102356.44;;;19.42;54.45
37852;BME280;23691;52.486;4.650;2022-07-18T05:00:54;102352.50;;;19.45;54.38
37852;BME280;23691;52.486;4.650;2022-07-18T05:03:21;102358.38;;;19.48;54.49
37852;BME280;23691;52.486;4.650;2022-07-18T05:05:47;102352.41;;;19.53;54.49
37852;BME280;23691;52.486;4.650;2022-07-18T05:08:12;102344.75;;;19.57;54.49
37852;BME280;23691;52.486;4.650;2022-07-18T05:10:39;102345.63;;;19.64;54.24
37852;BME280;23691;52.486;4.650;2022-07-18T05:13:05;102336.63;;;19.71;53.96
37852;BME280;23691;52.486;4.650;2022-07-18T05:15:30;102330.69;;;19.83;53.74
37852;BME280;23691;52.486;4.650;2022-07-18T05:17:56;102332.25;;;19.92;53.27
37852;BME280;23691;52.486;4.650;2022-07-18T05:20:24;102323.81;;;20.02;53.13
37852;BME280;23691;52.486;4.650;2022-07-18T05:22:50;102324.16;;;20.13;52.61
37852;BME280;23691;52.486;4.650;2022-07-18T05:25:17;102327.00;;;20.27;52.27
37852;BME280;23691;52.486;4.650;2022-07-18T05:27:43;102316.66;;;20.37;51.81
37852;BME280;23691;52.486;4.650;2022-07-18T05:30:10;102319.88;;;20.47;51.40
37852;BME280;23691;52.486;4.650;2022-07-18T05:32:38;102320.06;;;20.61;51.13
37852;BME280;23691;52.486;4.650;2022-07-18T05:35:03;102319.41;;;20.80;50.91
37852;BME280;23691;52.486;4.650;2022-07-18T05:37:29;102325.81;;;21.00;50.01
37852;BME280;23691;52.486;4.650;2022-07-18T05:39:54;102322.81;;;21.17;50.28
37852;BME280;23691;52.486;4.650;2022-07-18T05:42:20;102318.25;;;21.24;49.74
37852;BME280;23691;52.486;4.650;2022-07-18T05:44:45;102323.53;;;21.32;49.33
37852;BME280;23691;52.486;4.650;2022-07-18T05:47:11;102313.34;;;21.41;49.03
37852;BME280;23691;52.486;4.650;2022-07-18T05:49:38;102316.94;;;21.48;48.78
37852;BME280;23691;52.486;4.650;2022-07-18T05:52:04;102319.28;;;21.58;48.48
37852;BME280;23691;52.486;4.650;2022-07-18T05:54:30;102322.47;;;21.68;48.34
37852;BME280;23691;52.486;4.650;2022-07-18T05:56:55;102313.06;;;21.71;48.59
37852;BME280;23691;52.486;4.650;2022-07-18T05:59:20;102321.03;;;21.72;47.91
37852;BME280;23691;52.486;4.650;2022-07-18T06:01:47;102307.41;;;21.72;47.93
37852;BME280;23691;52.486;4.650;2022-07-18T06:04:12;102319.16;;;21.73;47.87
37852;BME280;23691;52.486;4.650;2022-07-18T06:06:38;102316.88;;;21.76;47.83
37852;BME280;23691;52.486;4.650;2022-07-18T06:09:04;102312.94;;;21.92;48.05
37852;BME280;23691;52.486;4.650;2022-07-18T06:11:30;102310.28;;;22.19;47.61
37852;BME280;23691;52.486;4.650;2022-07-18T06:13:55;102307.81;;;22.37;47.19
37852;BME280;23691;52.486;4.650;2022-07-18T06:16:21;102314.56;;;22.68;46.71
37852;BME280;23691;52.486;4.650;2022-07-18T06:18:46;102311.84;;;22.94;46.25
37852;BME280;23691;52.486;4.650;2022-07-18T06:21:12;102299.66;;;23.24;45.59
37852;BME280;23691;52.486;4.650;2022-07-18T06:23:37;102291.84;;;23.41;45.17
37852;BME280;23691;52.486;4.650;2022-07-18T06:26:03;102287.78;;;23.50;44.91
37852;BME280;23691;52.486;4.650;2022-07-18T06:28:29;102295.09;;;23.63;44.96
37852;BME280;23691;52.486;4.650;2022-07-18T06:30:54;102291.31;;;23.70;44.54
37852;BME280;23691;52.486;4.650;2022-07-18T06:33:20;102299.50;;;23.70;44.63
37852;BME280;23691;52.486;4.650;2022-07-18T06:35:46;102304.09;;;23.70;44.99
37852;BME280;23691;52.486;4.650;2022-07-18T06:38:12;102294.84;;;23.77;44.63
37852;BME280;23691;52.486;4.650;2022-07-18T06:40:37;102298.56;;;23.90;44.46
37852;BME280;23691;52.486;4.650;2022-07-18T06:43:03;102289.13;;;23.92;44.49
37852;BME280;23691;52.486;4.650;2022-07-18T06:45:29;102289.06;;;23.99;44.19
37852;BME280;23691;52.486;4.650;2022-07-18T06:47:54;102293.00;;;24.10;44.01
37852;BME280;23691;52.486;4.650;2022-07-18T06:50:19;102287.06;;;24.19;43.72
37852;BME280;23691;52.486;4.650;2022-07-18T06:52:45;102285.72;;;24.29;43.45
37852;BME280;23691;52.486;4.650;2022-07-18T06:55:12;102279.72;;;24.45;43.60
37852;BME280;23691;52.486;4.650;2022-07-18T06:57:39;102286.13;;;24.64;43.53
37852;BME280;23691;52.486;4.650;2022-07-18T07:00:06;102292.38;;;24.71;43.01
37852;BME280;23691;52.486;4.650;2022-07-18T07:02:33;102285.63;;;24.74;43.06
37852;BME280;23691;52.486;4.650;2022-07-18T07:04:58;102297.06;;;24.64;43.16
37852;BME280;23691;52.486;4.650;2022-07-18T07:07:24;102296.28;;;24.57;43.05
37852;BME280;23691;52.486;4.650;2022-07-18T07:09:49;102299.00;;;24.57;43.33
37852;BME280;23691;52.486;4.650;2022-07-18T07:12:14;102305.50;;;24.62;43.01
37852;BME280;23691;52.486;4.650;2022-07-18T07:14:40;102307.25;;;24.75;42.73
37852;BME280;23691;52.486;4.650;2022-07-18T07:17:05;102313.16;;;24.97;42.54
37852;BME280;23691;52.486;4.650;2022-07-18T07:19:33;102319.25;;;25.24;41.96
37852;BME280;23691;52.486;4.650;2022-07-18T07:21:59;102312.34;;;25.40;41.98
37852;BME280;23691;52.486;4.650;2022-07-18T07:24:24;102298.56;;;25.47;41.70
37852;BME280;23691;52.486;4.650;2022-07-18T07:26:50;102306.78;;;25.65;41.03
37852;BME280;23691;52.486;4.650;2022-07-18T07:29:15;102310.94;;;25.86;41.03
37852;BME280;23691;52.486;4.650;2022-07-18T07:31:41;102304.00;;;26.02;40.34
37852;BME280;23691;52.486;4.650;2022-07-18T07:34:08;102308.53;;;26.08;40.39
37852;BME280;23691;52.486;4.650;2022-07-18T07:36:34;102299.13;;;26.16;40.36
37852;BME280;23691;52.486;4.650;2022-07-18T07:38:59;102296.91;;;26.25;40.15
37852;BME280;23691;52.486;4.650;2022-07-18T07:41:25;102297.78;;;26.37;40.13
37852;BME280;23691;52.486;4.650;2022-07-18T07:43:50;102298.63;;;26.49;40.02
37852;BME280;23691;52.486;4.650;2022-07-18T07:46:15;102299.41;;;26.68;39.59
37852;BME280;23691;52.486;4.650;2022-07-18T07:48:41;102290.94;;;26.93;39.57
37852;BME280;23691;52.486;4.650;2022-07-18T07:51:08;102294.66;;;27.23;39.02
37852;BME280;23691;52.486;4.650;2022-07-18T07:53:34;102294.94;;;27.50;39.20
37852;BME280;23691;52.486;4.650;2022-07-18T07:55:59;102288.94;;;27.65;38.50
37852;BME280;23691;52.486;4.650;2022-07-18T07:58:24;102290.31;;;27.79;37.70
37852;BME280;23691;52.486;4.650;2022-07-18T08:00:50;102282.53;;;27.88;37.92
37852;BME280;23691;52.486;4.650;2022-07-18T08:03:15;102288.03;;;27.88;37.22
37852;BME280;23691;52.486;4.650;2022-07-18T08:05:46;102281.94;;;27.86;36.93
37852;BME280;23691;52.486;4.650;2022-07-18T08:08:12;102294.47;;;27.81;36.81
37852;BME280;23691;52.486;4.650;2022-07-18T08:10:39;102290.53;;;27.77;36.66
37852;BME280;23691;52.486;4.650;2022-07-18T08:13:05;102291.00;;;27.86;36.93
37852;BME280;23691;52.486;4.650;2022-07-18T08:15:30;102289.72;;;28.05;36.79
37852;BME280;23691;52.486;4.650;2022-07-18T08:17:56;102296.53;;;28.03;35.88
37852;BME280;23691;52.486;4.650;2022-07-18T08:20:22;102294.84;;;27.85;35.46
37852;BME280;23691;52.486;4.650;2022-07-18T08:25:22;102295.75;;;27.62;35.74
37852;BME280;23691;52.486;4.650;2022-07-18T08:27:48;102295.28;;;27.53;35.57
37852;BME280;23691;52.486;4.650;2022-07-18T08:30:13;102297.94;;;27.48;35.85
37852;BME280;23691;52.486;4.650;2022-07-18T08:32:39;102297.81;;;27.43;36.08
37852;BME280;23691;52.486;4.650;2022-07-18T08:35:05;102302.38;;;27.37;35.98
37852;BME280;23691;52.486;4.650;2022-07-18T08:37:30;102295.09;;;27.31;36.36
37852;BME280;23691;52.486;4.650;2022-07-18T08:39:56;102291.63;;;27.24;36.76
37852;BME280;23691;52.486;4.650;2022-07-18T08:42:25;102295.56;;;27.16;36.95
37852;BME280;23691;52.486;4.650;2022-07-18T08:44:55;102288.91;;;27.12;37.06
37852;BME280;23691;52.486;4.650;2022-07-18T08:47:21;102286.63;;;27.21;37.13
37852;BME280;23691;52.486;4.650;2022-07-18T08:49:48;102282.78;;;27.34;37.39
37852;BME280;23691;52.486;4.650;2022-07-18T08:52:14;102287.13;;;27.58;36.98
37852;BME280;23691;52.486;4.650;2022-07-18T08:54:40;102283.84;;;27.73;36.78
37852;BME280;23691;52.486;4.650;2022-07-18T08:57:05;102275.53;;;27.97;36.58
37852;BME280;23691;52.486;4.650;2022-07-18T08:59:31;102276.25;;;28.21;35.94
37852;BME280;23691;52.486;4.650;2022-07-18T09:01:56;102277.81;;;28.45;35.80
37852;BME280;23691;52.486;4.650;2022-07-18T09:04:39;102266.88;;;28.67;35.47
37852;BME280;23691;52.486;4.650;2022-07-18T09:07:06;102275.53;;;28.59;35.65
37852;BME280;23691;52.486;4.650;2022-07-18T09:09:34;102265.69;;;28.63;35.10
37852;BME280;23691;52.486;4.650;2022-07-18T09:12:05;102261.81;;;28.81;34.67
37852;BME280;23691;52.486;4.650;2022-07-18T09:14:39;102260.91;;;28.93;34.62
37852;BME280;23691;52.486;4.650;2022-07-18T09:19:34;102264.91;;;29.24;34.26
37852;BME280;23691;52.486;4.650;2022-07-18T09:22:17;102258.50;;;29.40;33.70
37852;BME280;23691;52.486;4.650;2022-07-18T09:24:55;102258.91;;;29.49;32.94
37852;BME280;23691;52.486;4.650;2022-07-18T09:27:35;102254.31;;;29.60;33.71
37852;BME280;23691;52.486;4.650;2022-07-18T09:32:37;102255.72;;;29.84;32.90
37852;BME280;23691;52.486;4.650;2022-07-18T09:35:17;102254.78;;;30.01;33.00
37852;BME280;23691;52.486;4.650;2022-07-18T09:38:13;102254.72;;;30.23;32.54
37852;BME280;23691;52.486;4.650;2022-07-18T09:40:50;102249.88;;;30.35;32.69
37852;BME280;23691;52.486;4.650;2022-07-18T09:43:17;102259.63;;;30.48;32.58
37852;BME280;23691;52.486;4.650;2022-07-18T09:48:18;102240.44;;;30.68;32.24
37852;BME280;23691;52.486;4.650;2022-07-18T09:50:50;102249.56;;;30.74;31.74
37852;BME280;23691;52.486;4.650;2022-07-18T09:53:21;102253.72;;;30.76;31.81
37852;BME280;23691;52.486;4.650;2022-07-18T09:55:57;102252.75;;;30.93;31.87
37852;BME280;23691;52.486;4.650;2022-07-18T09:58:26;102243.97;;;31.06;31.37
37852;BME280;23691;52.486;4.650;2022-07-18T10:00:54;102245.09;;;31.10;31.15
37852;BME280;23691;52.486;4.650;2022-07-18T10:03:20;102245.94;;;31.16;31.30
37852;BME280;23691;52.486;4.650;2022-07-18T10:05:48;102240.19;;;31.22;31.19
37852;BME280;23691;52.486;4.650;2022-07-18T10:08:36;102237.75;;;31.36;30.39
37852;BME280;23691;52.486;4.650;2022-07-18T10:11:03;102234.50;;;31.50;30.25
37852;BME280;23691;52.486;4.650;2022-07-18T10:13:30;102231.22;;;31.63;29.76
37852;BME280;23691;52.486;4.650;2022-07-18T10:15:56;102235.97;;;31.73;29.48
37852;BME280;23691;52.486;4.650;2022-07-18T10:18:24;102234.84;;;31.84;30.21
37852;BME280;23691;52.486;4.650;2022-07-18T10:20:55;102231.53;;;31.92;29.98
37852;BME280;23691;52.486;4.650;2022-07-18T10:28:35;102222.72;;;32.00;28.20
37852;BME280;23691;52.486;4.650;2022-07-18T10:31:14;102233.22;;;31.93;27.08
37852;BME280;23691;52.486;4.650;2022-07-18T10:33:42;102232.94;;;31.95;27.16
37852;BME280;23691;52.486;4.650;2022-07-18T10:36:11;102227.16;;;31.96;27.09
37852;BME280;23691;52.486;4.650;2022-07-18T10:38:38;102232.97;;;32.00;26.77
37852;BME280;23691;52.486;4.650;2022-07-18T10:41:05;102234.63;;;32.06;27.24
37852;BME280;23691;52.486;4.650;2022-07-18T10:43:32;102235.75;;;32.15;27.07
37852;BME280;23691;52.486;4.650;2022-07-18T10:45:58;102235.19;;;32.23;26.99
37852;BME280;23691;52.486;4.650;2022-07-18T10:51:00;102231.28;;;32.40;27.03
37852;BME280;23691;52.486;4.650;2022-07-18T10:53:59;102240.16;;;32.42;26.37
37852;BME280;23691;52.486;4.650;2022-07-18T10:59:01;102227.41;;;32.46;25.91
37852;BME280;23691;52.486;4.650;2022-07-18T11:01:47;102223.56;;;32.52;26.18
37852;BME280;23691;52.486;4.650;2022-07-18T11:04:26;102239.31;;;32.41;25.85
37852;BME280;23691;52.486;4.650;2022-07-18T11:09:34;102228.50;;;32.65;25.93
37852;BME280;23691;52.486;4.650;2022-07-18T11:12:29;102218.75;;;32.78;25.51
37852;BME280;23691;52.486;4.650;2022-07-18T11:17:59;102225.13;;;32.89;25.45
37852;BME280;23691;52.486;4.650;2022-07-18T11:22:59;102222.81;;;33.17;25.14
37852;BME280;23691;52.486;4.650;2022-07-18T11:25:27;102220.44;;;33.44;25.30
37852;BME280;23691;52.486;4.650;2022-07-18T11:27:54;102217.59;;;33.54;24.68
37852;BME280;23691;52.486;4.650;2022-07-18T11:30:21;102215.69;;;33.60;23.84
37852;BME280;23691;52.486;4.650;2022-07-18T11:32:46;102210.66;;;33.62;24.38
37852;BME280;23691;52.486;4.650;2022-07-18T11:35:12;102210.13;;;33.60;24.55
37852;BME280;23691;52.486;4.650;2022-07-18T11:37:38;102203.88;;;33.78;24.94
37852;BME280;23691;52.486;4.650;2022-07-18T11:40:08;102206.34;;;33.85;25.35
37852;BME280;23691;52.486;4.650;2022-07-18T11:42:40;102202.50;;;33.76;24.41
37852;BME280;23691;52.486;4.650;2022-07-18T11:45:08;102197.22;;;33.80;24.48
37852;BME280;23691;52.486;4.650;2022-07-18T11:47:52;102194.09;;;33.86;25.17
37852;BME280;23691;52.486;4.650;2022-07-18T11:50:26;102188.50;;;33.91;24.71
37852;BME280;23691;52.486;4.650;2022-07-18T11:52:59;102177.72;;;33.90;24.81
37852;BME280;23691;52.486;4.650;2022-07-18T11:55:36;102187.03;;;34.04;24.85
37852;BME280;23691;52.486;4.650;2022-07-18T11:58:11;102194.16;;;34.15;24.69
37852;BME280;23691;52.486;4.650;2022-07-18T12:00:38;102197.38;;;34.28;24.27
37852;BME280;23691;52.486;4.650;2022-07-18T12:05:48;102191.53;;;34.29;23.48
37852;BME280;23691;52.486;4.650;2022-07-18T12:13:43;102175.28;;;34.71;23.74
37852;BME280;23691;52.486;4.650;2022-07-18T12:18:51;102173.59;;;34.94;23.72
37852;BME280;23691;52.486;4.650;2022-07-18T12:21:17;102174.88;;;35.01;23.87
37852;BME280;23691;52.486;4.650;2022-07-18T12:23:43;102170.41;;;35.05;23.31
37852;BME280;23691;52.486;4.650;2022-07-18T12:26:08;102171.72;;;35.13;23.75
37852;BME280;23691;52.486;4.650;2022-07-18T12:28:33;102171.63;;;35.18;23.83
37852;BME280;23691;52.486;4.650;2022-07-18T12:30:59;102173.97;;;35.30;24.42
37852;BME280;23691;52.486;4.650;2022-07-18T12:33:25;102164.34;;;35.41;23.72
37852;BME280;23691;52.486;4.650;2022-07-18T12:35:59;102168.88;;;35.37;23.04
37852;BME280;23691;52.486;4.650;2022-07-18T12:38:26;102171.66;;;35.37;23.41
37852;BME280;23691;52.486;4.650;2022-07-18T12:40:55;102166.81;;;35.43;22.58
37852;BME280;23691;52.486;4.650;2022-07-18T12:43:33;102166.44;;;35.31;22.52
37852;BME280;23691;52.486;4.650;2022-07-18T12:46:00;102175.53;;;35.36;22.16
37852;BME280;23691;52.486;4.650;2022-07-18T12:48:27;102168.16;;;35.26;22.65
37852;BME280;23691;52.486;4.650;2022-07-18T12:50:58;102176.84;;;35.25;22.79
37852;BME280;23691;52.486;4.650;2022-07-18T12:53:24;102172.16;;;35.39;23.07
37852;BME280;23691;52.486;4.650;2022-07-18T12:55:50;102176.53;;;35.45;22.67
37852;BME280;23691;52.486;4.650;2022-07-18T12:58:16;102165.63;;;35.30;21.66
37852;BME280;23691;52.486;4.650;2022-07-18T13:00:41;102159.91;;;35.21;21.90
37852;BME280;23691;52.486;4.650;2022-07-18T13:03:06;102152.91;;;35.24;21.86
37852;BME280;23691;52.486;4.650;2022-07-18T13:05:32;102149.09;;;35.20;20.94
37852;BME280;23691;52.486;4.650;2022-07-18T13:07:57;102145.34;;;35.30;20.54
37852;BME280;23691;52.486;4.650;2022-07-18T13:10:23;102146.72;;;35.46;19.77
37852;BME280;23691;52.486;4.650;2022-07-18T13:12:49;102149.22;;;35.47;20.20
37852;BME280;23691;52.486;4.650;2022-07-18T13:15:14;102146.50;;;35.61;20.38
37852;BME280;23691;52.486;4.650;2022-07-18T13:17:40;102143.34;;;35.68;20.73
37852;BME280;23691;52.486;4.650;2022-07-18T13:20:06;102136.88;;;35.73;21.10
37852;BME280;23691;52.486;4.650;2022-07-18T13:22:31;102137.31;;;35.80;21.58
37852;BME280;23691;52.486;4.650;2022-07-18T13:25:07;102141.53;;;35.77;21.93
37852;BME280;23691;52.486;4.650;2022-07-18T13:27:33;102136.94;;;35.86;22.23
37852;BME280;23691;52.486;4.650;2022-07-18T13:29:59;102135.16;;;35.90;22.06